Destinations Saarbrücken Airport

Saarbrücken Airport (EDDR / SCN)

Flights to Saarbrücken Airport

Flight number From ETE Dispatch
SPY-122 EHGG Groningen Airport Eelde 01:20

Flights from Saarbrücken Airport

Flight number To ETE Dispatch
SPY-123 EHGG Groningen Airport Eelde 01:10
About

Saarbrücken Airport facts

Saarbrücken Airport is located in Saarbruecken at an elevation of 322.5 meters or 1058 feet.

Currently, Speedy Airlines serves 2 flights to and from Saarbrücken Airport.

Detailed airport info

Route map

Weather

Current weather

METAR

METAR

Metar data retrieved Sunday, 21 July 2024 at 19:25 UTC

EDDR 211850Z AUTO 27007KT CAVOK 23/16 Q1012 NOSIG
Wind Temperature
7 kt 23c